createdAt,value
2022-07-26T00:01:49.337Z,51.34
2022-07-26T00:04:21.077Z,51.18
2022-07-26T00:06:52.887Z,51.28
2022-07-26T00:09:24.897Z,51.66
2022-07-26T00:11:56.940Z,51.60
2022-07-26T00:14:28.617Z,51.76
2022-07-26T00:17:00.793Z,51.78
2022-07-26T00:19:32.572Z,51.92
2022-07-26T00:22:22.357Z,53.44
2022-07-26T00:24:54.073Z,54.53
2022-07-26T00:27:25.866Z,53.66
2022-07-26T00:29:57.658Z,53.76
2022-07-26T00:32:29.428Z,54.36
2022-07-26T00:35:01.145Z,53.99
2022-07-26T00:37:33.165Z,54.10
2022-07-26T00:40:07.243Z,54.07
2022-07-26T00:42:41.416Z,54.03
2022-07-26T00:45:15.287Z,53.75
2022-07-26T00:47:47.485Z,53.60
2022-07-26T00:50:21.170Z,53.45
2022-07-26T00:52:54.409Z,53.73
2022-07-26T00:55:26.268Z,53.76
2022-07-26T00:57:58.136Z,53.90
2022-07-26T01:00:30.058Z,54.82
2022-07-26T01:03:02.757Z,55.00
2022-07-26T01:05:35.526Z,56.30
2022-07-26T01:08:07.662Z,56.68
2022-07-26T01:10:40.170Z,57.34
2022-07-26T01:13:12.378Z,57.32
2022-07-26T01:15:44.052Z,59.75
2022-07-26T01:18:15.890Z,59.99
2022-07-26T01:20:49.694Z,61.56
2022-07-26T01:23:22.095Z,60.56
2022-07-26T01:25:53.706Z,61.07
2022-07-26T01:28:25.332Z,61.38
2022-07-26T01:30:57.077Z,61.98
2022-07-26T01:33:28.955Z,63.14
2022-07-26T01:36:00.579Z,62.91
2022-07-26T01:38:32.221Z,63.56
2022-07-26T01:41:03.876Z,62.94
2022-07-26T01:43:35.805Z,64.84
2022-07-26T01:46:08.923Z,64.53
2022-07-26T01:48:41.471Z,64.31
2022-07-26T01:51:13.139Z,64.73
2022-07-26T01:53:45.909Z,65.36
2022-07-26T01:56:17.720Z,65.48
2022-07-26T01:58:49.752Z,64.55
2022-07-26T02:01:39.501Z,65.13
2022-07-26T02:04:32.023Z,65.39
2022-07-26T02:07:05.566Z,65.55
2022-07-26T02:09:44.771Z,65.54
2022-07-26T02:12:18.888Z,66.09
2022-07-26T02:14:50.641Z,65.50
2022-07-26T02:17:22.334Z,64.75
2022-07-26T02:19:54.057Z,65.23
2022-07-26T02:22:25.825Z,65.26
2022-07-26T02:25:04.460Z,65.86
2022-07-26T02:27:36.814Z,65.06
2022-07-26T02:30:14.795Z,65.54
2022-07-26T02:32:46.397Z,66.14
2022-07-26T02:35:18.152Z,65.90
2022-07-26T02:37:49.784Z,65.35
2022-07-26T02:40:21.675Z,65.20
2022-07-26T02:42:53.385Z,65.27
2022-07-26T02:45:25.347Z,65.01
2022-07-26T02:47:58.189Z,64.77
2022-07-26T02:50:31.048Z,64.81
2022-07-26T02:53:02.863Z,64.65
2022-07-26T02:55:34.810Z,64.82
2022-07-26T02:58:06.730Z,63.99
2022-07-26T03:00:38.482Z,63.83
2022-07-26T03:03:14.244Z,63.90
2022-07-26T03:05:46.285Z,64.63
2022-07-26T03:08:17.831Z,64.62
2022-07-26T03:10:49.786Z,64.43
2022-07-26T03:13:21.663Z,64.25
2022-07-26T03:15:53.533Z,64.44
2022-07-26T03:18:25.402Z,64.59
2022-07-26T03:20:57.145Z,64.26
2022-07-26T03:23:28.957Z,64.16
2022-07-26T03:26:01.749Z,63.76
2022-07-26T03:28:34.829Z,64.29
2022-07-26T03:31:06.586Z,64.18
2022-07-26T03:33:38.304Z,64.04
2022-07-26T03:36:15.423Z,64.00
2022-07-26T03:38:47.547Z,63.70
2022-07-26T03:41:19.250Z,63.75
2022-07-26T03:43:50.877Z,63.57
2022-07-26T03:46:22.860Z,63.43
2022-07-26T03:48:54.707Z,63.59
2022-07-26T03:51:26.752Z,63.33
2022-07-26T03:53:58.449Z,63.48
2022-07-26T03:56:32.049Z,63.40
2022-07-26T03:59:06.056Z,63.78
2022-07-26T04:01:41.834Z,63.41
2022-07-26T04:04:15.807Z,63.56
2022-07-26T04:06:48.628Z,63.46
2022-07-26T04:09:20.377Z,63.26
2022-07-26T04:11:52.124Z,63.20
2022-07-26T04:14:23.897Z,62.73
2022-07-26T04:16:55.579Z,62.33
2022-07-26T04:19:27.343Z,62.57
2022-07-26T04:21:58.944Z,62.37
2022-07-26T04:24:30.585Z,62.39
2022-07-26T04:27:02.221Z,62.16
2022-07-26T04:29:33.798Z,62.20
2022-07-26T04:32:05.706Z,62.25
2022-07-26T04:34:37.356Z,61.86
2022-07-26T04:37:09.069Z,61.86
2022-07-26T04:39:40.755Z,61.69
2022-07-26T04:42:12.432Z,61.90
2022-07-26T04:44:43.962Z,61.72
2022-07-26T04:47:15.608Z,61.72
2022-07-26T04:49:47.354Z,61.77
2022-07-26T04:52:19.028Z,61.62
2022-07-26T04:54:50.633Z,61.58
2022-07-26T04:57:22.338Z,61.50
2022-07-26T05:00:10.099Z,61.45
2022-07-26T05:02:45.713Z,61.54
2022-07-26T05:05:17.897Z,61.41
2022-07-26T05:07:53.503Z,61.39
2022-07-26T05:10:31.004Z,61.55
2022-07-26T05:13:04.063Z,61.49
2022-07-26T05:15:37.025Z,61.31
2022-07-26T05:18:13.673Z,61.57
2022-07-26T05:20:45.445Z,61.46
2022-07-26T05:23:17.033Z,61.58
2022-07-26T05:25:48.797Z,61.51
2022-07-26T05:28:20.369Z,61.32
2022-07-26T05:30:52.333Z,61.32
2022-07-26T05:33:24.490Z,61.50
2022-07-26T05:35:56.182Z,61.24
2022-07-26T05:38:27.893Z,61.36
2022-07-26T05:40:59.512Z,61.19
2022-07-26T05:43:40.888Z,61.19
2022-07-26T05:46:18.371Z,61.15
2022-07-26T05:48:50.308Z,61.17
2022-07-26T05:51:22.003Z,61.24
2022-07-26T05:53:53.667Z,61.32
2022-07-26T05:56:25.374Z,61.15
2022-07-26T05:58:57.221Z,60.95
2022-07-26T06:01:32.467Z,60.87
2022-07-26T06:04:05.155Z,60.82
2022-07-26T06:06:37.249Z,60.94
2022-07-26T06:09:09.284Z,60.88
2022-07-26T06:11:41.006Z,60.68
2022-07-26T06:14:13.248Z,60.66
2022-07-26T06:16:45.309Z,60.50
2022-07-26T06:19:17.755Z,60.40
2022-07-26T06:21:49.404Z,60.13
2022-07-26T06:24:21.109Z,60.06
2022-07-26T06:26:57.061Z,59.79
2022-07-26T06:29:32.229Z,59.80
2022-07-26T06:32:04.433Z,59.52
2022-07-26T06:34:36.201Z,59.41
2022-07-26T06:37:07.835Z,58.89
2022-07-26T06:39:39.465Z,58.34
2022-07-26T06:42:11.109Z,58.33
2022-07-26T06:44:43.073Z,57.79
2022-07-26T06:47:14.657Z,57.47
2022-07-26T06:49:46.558Z,56.48
2022-07-26T06:52:18.286Z,55.88
2022-07-26T06:54:50.520Z,55.56
2022-07-26T06:57:22.128Z,55.25
2022-07-26T06:59:53.810Z,54.94
2022-07-26T07:02:26.480Z,54.51
2022-07-26T07:04:58.389Z,53.31
2022-07-26T07:07:29.992Z,52.83
2022-07-26T07:10:01.688Z,53.34
2022-07-26T07:12:33.446Z,53.00
2022-07-26T07:15:05.862Z,52.93
2022-07-26T07:17:37.901Z,52.73
2022-07-26T07:20:13.493Z,51.89
2022-07-26T07:22:45.173Z,51.63
2022-07-26T07:25:17.284Z,51.38
2022-07-26T07:27:49.127Z,50.78
2022-07-26T07:30:23.044Z,51.65
2022-07-26T07:32:55.693Z,51.26
2022-07-26T07:35:28.396Z,51.02
2022-07-26T07:38:03.964Z,50.70
2022-07-26T07:40:35.866Z,50.05
2022-07-26T07:43:07.629Z,49.87
2022-07-26T07:45:39.417Z,49.68
2022-07-26T07:48:11.177Z,49.44
2022-07-26T07:50:43.173Z,49.54
2022-07-26T07:53:14.976Z,49.70
2022-07-26T07:55:47.050Z,49.11
2022-07-26T07:58:20.932Z,48.55
2022-07-26T08:00:52.687Z,47.90
2022-07-26T08:03:24.626Z,48.63
2022-07-26T08:06:13.041Z,46.75
2022-07-26T08:08:45.234Z,47.20
2022-07-26T08:11:20.209Z,46.23
2022-07-26T08:13:52.586Z,46.31
2022-07-26T08:16:24.467Z,46.12
2022-07-26T08:18:57.113Z,45.62
2022-07-26T08:21:29.960Z,46.36
2022-07-26T08:26:51.545Z,45.80
2022-07-26T08:29:23.094Z,45.94
2022-07-26T08:31:54.923Z,45.05
2022-07-26T08:34:26.518Z,44.90
2022-07-26T08:37:15.922Z,44.74
2022-07-26T08:39:49.921Z,43.85
2022-07-26T08:42:23.233Z,44.19
2022-07-26T08:44:55.533Z,44.12
2022-07-26T08:47:37.710Z,43.53
2022-07-26T08:50:12.502Z,42.52
2022-07-26T08:52:45.093Z,43.51
2022-07-26T08:55:21.832Z,42.96
2022-07-26T08:57:53.648Z,43.27
2022-07-26T09:00:29.762Z,42.00
2022-07-26T09:03:02.972Z,42.86
2022-07-26T09:05:36.542Z,41.99
2022-07-26T09:08:26.797Z,42.96
2022-07-26T09:10:59.466Z,42.43
2022-07-26T09:13:54.852Z,42.19
2022-07-26T09:16:26.926Z,41.92
2022-07-26T09:19:14.979Z,41.70
2022-07-26T09:21:47.153Z,41.76
2022-07-26T09:24:32.965Z,41.67
2022-07-26T09:27:07.028Z,42.09
2022-07-26T09:29:50.216Z,41.14
2022-07-26T09:32:23.841Z,40.65
2022-07-26T09:34:59.254Z,40.59
2022-07-26T09:37:38.933Z,39.30
2022-07-26T09:40:15.896Z,40.35
2022-07-26T09:42:59.091Z,40.06
2022-07-26T09:45:32.809Z,40.51
2022-07-26T09:48:05.620Z,40.53
2022-07-26T09:50:37.882Z,39.77
2022-07-26T09:53:11.469Z,39.57
2022-07-26T09:58:45.965Z,38.42
2022-07-26T10:01:17.759Z,39.24
2022-07-26T10:03:51.449Z,39.11
2022-07-26T10:06:27.254Z,38.29
2022-07-26T10:09:02.533Z,38.74
2022-07-26T10:11:38.012Z,38.93
2022-07-26T10:14:40.618Z,38.82
2022-07-26T10:17:46.379Z,37.81
2022-07-26T10:20:46.700Z,38.00
2022-07-26T10:23:34.043Z,36.75
2022-07-26T10:26:07.329Z,36.95
2022-07-26T10:28:42.937Z,36.87
2022-07-26T10:31:30.656Z,37.32
2022-07-26T10:34:04.329Z,37.17
2022-07-26T10:36:39.234Z,36.81
2022-07-26T10:39:14.253Z,36.87
2022-07-26T10:41:48.610Z,36.97
2022-07-26T10:44:26.113Z,37.04
2022-07-26T10:47:11.387Z,36.84
2022-07-26T10:49:45.531Z,35.82
2022-07-26T10:52:19.726Z,36.49
2022-07-26T10:55:20.200Z,36.26
2022-07-26T10:57:51.884Z,36.98
2022-07-26T11:00:26.350Z,37.42
2022-07-26T11:03:00.947Z,37.87
2022-07-26T11:05:35.011Z,36.58
2022-07-26T11:08:10.307Z,37.10
2022-07-26T11:10:43.669Z,37.41
2022-07-26T11:13:18.230Z,37.59
2022-07-26T11:15:52.651Z,37.08
2022-07-26T11:18:27.976Z,37.20
2022-07-26T11:21:10.212Z,36.43
2022-07-26T11:23:44.306Z,35.83
2022-07-26T11:26:18.489Z,35.60
2022-07-26T11:29:01.088Z,36.33
2022-07-26T11:31:55.583Z,35.78
2022-07-26T11:34:35.795Z,35.61
2022-07-26T11:37:07.802Z,35.55
2022-07-26T11:39:39.548Z,34.41
2022-07-26T11:42:13.309Z,35.01
2022-07-26T11:44:47.783Z,35.27
2022-07-26T11:47:24.403Z,34.87
2022-07-26T11:50:14.372Z,35.41
2022-07-26T11:52:50.370Z,34.30
2022-07-26T11:55:30.532Z,34.97
2022-07-26T11:58:08.040Z,34.51
2022-07-26T12:00:40.009Z,34.40
2022-07-26T12:03:11.727Z,34.44
2022-07-26T12:05:43.761Z,33.59
2022-07-26T12:08:15.501Z,33.24
2022-07-26T12:10:56.269Z,33.70
2022-07-26T12:13:27.866Z,33.69
2022-07-26T12:16:11.825Z,33.90
2022-07-26T12:18:53.218Z,33.52
2022-07-26T12:21:43.893Z,33.09
2022-07-26T12:24:34.379Z,31.81
2022-07-26T12:27:11.021Z,32.64
2022-07-26T12:29:44.454Z,32.05
2022-07-26T12:32:18.496Z,32.86
2022-07-26T12:35:01.911Z,31.91
2022-07-26T12:37:40.692Z,32.42
2022-07-26T12:40:16.185Z,32.65
2022-07-26T12:43:01.115Z,32.50
2022-07-26T12:45:35.061Z,33.43
2022-07-26T12:48:12.038Z,33.74
2022-07-26T12:50:43.697Z,34.04
2022-07-26T12:53:15.573Z,34.42
2022-07-26T12:55:47.208Z,34.66
2022-07-26T12:58:18.788Z,34.63
2022-07-26T13:00:50.519Z,34.76
2022-07-26T13:03:22.286Z,34.62
2022-07-26T13:05:53.873Z,34.24
2022-07-26T13:08:25.862Z,33.93
2022-07-26T13:11:00.127Z,33.62
2022-07-26T13:13:32.516Z,32.93
2022-07-26T13:16:09.585Z,32.54
2022-07-26T13:18:43.413Z,33.28
2022-07-26T13:21:15.307Z,32.59
2022-07-26T13:23:47.093Z,32.19
2022-07-26T13:26:19.176Z,32.46
2022-07-26T13:28:52.882Z,31.94
2022-07-26T13:31:24.642Z,32.37
2022-07-26T13:33:56.738Z,32.89
2022-07-26T13:36:28.388Z,32.74
2022-07-26T13:39:00.233Z,32.40
2022-07-26T13:41:32.284Z,32.99
2022-07-26T13:44:08.400Z,33.13
2022-07-26T13:46:40.457Z,33.38
2022-07-26T13:49:12.719Z,33.42
2022-07-26T13:52:00.033Z,33.21
2022-07-26T13:54:33.685Z,32.81
2022-07-26T13:57:07.800Z,33.21
2022-07-26T13:59:39.422Z,33.16
2022-07-26T14:02:11.476Z,32.23
2022-07-26T14:04:43.765Z,32.39
2022-07-26T14:07:15.305Z,32.42
2022-07-26T14:09:47.044Z,32.79
2022-07-26T14:12:18.800Z,33.20
2022-07-26T14:14:50.598Z,33.30
2022-07-26T14:17:22.253Z,33.75
2022-07-26T14:19:53.929Z,33.53
2022-07-26T14:22:25.795Z,33.65
2022-07-26T14:24:57.469Z,33.86
2022-07-26T14:27:28.995Z,34.29
2022-07-26T14:30:00.635Z,34.06
2022-07-26T14:32:32.386Z,33.67
2022-07-26T14:35:04.114Z,33.83
2022-07-26T14:37:44.233Z,33.25
2022-07-26T14:40:18.867Z,32.93
2022-07-26T14:42:50.526Z,31.98
2022-07-26T14:45:22.417Z,32.26
2022-07-26T14:47:54.108Z,32.04
2022-07-26T14:50:26.152Z,31.21
2022-07-26T14:52:57.876Z,31.79
2022-07-26T14:55:30.634Z,32.13
2022-07-26T14:58:02.358Z,32.20
2022-07-26T15:00:34.111Z,32.17
2022-07-26T15:03:05.798Z,32.60
2022-07-26T15:05:37.589Z,32.12
2022-07-26T15:08:09.615Z,31.86
2022-07-26T15:10:41.315Z,31.37
2022-07-26T15:13:14.970Z,31.26
2022-07-26T15:15:46.575Z,31.52
2022-07-26T15:18:18.328Z,31.98
2022-07-26T15:20:50.171Z,32.28
2022-07-26T15:23:22.218Z,32.70
2022-07-26T15:25:54.144Z,33.01
2022-07-26T15:28:25.866Z,33.24
2022-07-26T15:30:57.498Z,33.41
2022-07-26T15:33:29.292Z,33.77
2022-07-26T15:36:05.697Z,33.90
2022-07-26T15:38:37.818Z,34.26
2022-07-26T15:41:09.623Z,34.67
2022-07-26T15:43:44.399Z,37.48
2022-07-26T15:46:20.711Z,40.11
2022-07-26T15:48:54.785Z,39.49
2022-07-26T15:51:27.418Z,43.15
2022-07-26T15:53:59.019Z,44.32
2022-07-26T15:56:30.743Z,44.82
2022-07-26T15:59:02.471Z,44.39
2022-07-26T16:01:34.340Z,45.76
2022-07-26T16:04:07.421Z,45.99
2022-07-26T16:06:39.260Z,46.72
2022-07-26T16:09:17.624Z,46.65
2022-07-26T16:11:50.710Z,47.45
2022-07-26T16:14:22.371Z,47.88
2022-07-26T16:16:54.158Z,49.13
2022-07-26T16:19:25.742Z,48.20
2022-07-26T16:21:57.449Z,48.78
2022-07-26T16:24:29.177Z,49.05
2022-07-26T16:27:01.001Z,49.95
2022-07-26T16:29:32.760Z,49.82
2022-07-26T16:32:04.473Z,49.68
2022-07-26T16:34:36.216Z,50.91
2022-07-26T16:37:08.127Z,51.55
2022-07-26T16:39:40.241Z,52.72
2022-07-26T16:42:11.972Z,52.57
2022-07-26T16:44:43.794Z,52.45
2022-07-26T16:47:15.839Z,54.87
2022-07-26T16:49:47.436Z,54.44
2022-07-26T16:52:19.206Z,54.95
2022-07-26T16:54:50.916Z,54.16
2022-07-26T16:57:22.672Z,54.90
2022-07-26T16:59:54.445Z,56.20
2022-07-26T17:02:26.204Z,55.91
2022-07-26T17:04:58.868Z,55.57
2022-07-26T17:07:32.124Z,55.00
2022-07-26T17:10:05.148Z,54.86
2022-07-26T17:12:38.252Z,56.37
2022-07-26T17:15:11.677Z,55.57
2022-07-26T17:17:48.261Z,55.80
2022-07-26T17:20:20.803Z,56.72
2022-07-26T17:22:52.509Z,56.57
2022-07-26T17:25:24.295Z,57.15
2022-07-26T17:27:55.938Z,58.20
2022-07-26T17:30:28.180Z,57.24
2022-07-26T17:32:59.945Z,57.82
2022-07-26T17:35:31.653Z,57.24
2022-07-26T17:38:03.358Z,57.40
2022-07-26T17:40:35.258Z,57.86
2022-07-26T17:43:07.025Z,57.74
2022-07-26T17:45:38.709Z,57.41
2022-07-26T17:48:10.571Z,57.42
2022-07-26T17:50:42.178Z,58.52
2022-07-26T17:53:13.800Z,58.20
2022-07-26T17:55:45.478Z,58.29
2022-07-26T17:58:17.229Z,58.88
2022-07-26T18:00:49.055Z,58.56
2022-07-26T18:03:21.470Z,58.91
2022-07-26T18:05:53.226Z,59.67
2022-07-26T18:08:27.238Z,59.40
2022-07-26T18:10:59.444Z,60.22
2022-07-26T18:13:31.375Z,59.65
2022-07-26T18:16:05.945Z,60.13
2022-07-26T18:18:38.257Z,60.50
2022-07-26T18:21:10.125Z,61.13
2022-07-26T18:23:54.808Z,61.06
2022-07-26T18:26:34.757Z,61.81
2022-07-26T18:29:06.710Z,62.40
2022-07-26T18:31:39.071Z,62.49
2022-07-26T18:34:10.934Z,63.95
2022-07-26T18:36:42.591Z,63.82
2022-07-26T18:39:14.849Z,63.94
2022-07-26T18:41:46.749Z,64.66
2022-07-26T18:44:19.496Z,63.01
2022-07-26T18:46:52.542Z,64.29
2022-07-26T18:49:27.252Z,63.90
2022-07-26T18:52:08.300Z,64.18
2022-07-26T18:54:40.600Z,65.04
2022-07-26T18:57:12.208Z,65.06
2022-07-26T18:59:44.008Z,65.73
2022-07-26T19:02:15.790Z,65.02
2022-07-26T19:04:47.407Z,64.60
2022-07-26T19:07:19.148Z,65.33
2022-07-26T19:09:56.368Z,66.17
2022-07-26T19:12:30.385Z,64.94
2022-07-26T19:15:02.687Z,65.32
2022-07-26T19:17:35.238Z,65.33
2022-07-26T19:20:10.030Z,65.18
2022-07-26T19:22:44.661Z,65.24
2022-07-26T19:25:17.555Z,64.93
2022-07-26T19:27:49.284Z,65.52
2022-07-26T19:30:21.118Z,65.18
2022-07-26T19:32:52.649Z,65.24
2022-07-26T19:35:24.522Z,65.35
2022-07-26T19:37:56.218Z,65.38
2022-07-26T19:40:28.530Z,65.41
2022-07-26T19:43:00.144Z,65.64
2022-07-26T19:45:32.189Z,65.64
2022-07-26T19:48:03.813Z,65.76
2022-07-26T19:50:35.652Z,66.15
2022-07-26T19:53:07.432Z,66.24
2022-07-26T19:55:41.861Z,66.33
2022-07-26T19:58:13.630Z,66.56
2022-07-26T20:00:45.275Z,66.80
2022-07-26T20:03:17.246Z,66.99
2022-07-26T20:05:48.940Z,66.69
2022-07-26T20:08:20.719Z,66.91
2022-07-26T20:10:52.858Z,66.98
2022-07-26T20:13:24.670Z,66.97
2022-07-26T20:15:56.378Z,66.94
2022-07-26T20:18:30.824Z,66.97
2022-07-26T20:21:02.636Z,67.07
2022-07-26T20:23:34.465Z,66.96
2022-07-26T20:26:06.140Z,66.85
2022-07-26T20:28:37.823Z,66.97
2022-07-26T20:31:09.719Z,66.86
2022-07-26T20:33:41.532Z,66.94
2022-07-26T20:36:13.168Z,66.81
2022-07-26T20:38:49.508Z,66.87
2022-07-26T20:41:25.092Z,66.99
2022-07-26T20:43:57.701Z,66.74
2022-07-26T20:46:30.883Z,66.90
2022-07-26T20:49:02.568Z,66.77
2022-07-26T20:51:34.375Z,66.91
2022-07-26T20:54:06.464Z,66.97
2022-07-26T20:56:38.585Z,67.02
2022-07-26T20:59:10.412Z,67.35
2022-07-26T21:01:44.058Z,67.22
2022-07-26T21:04:15.931Z,67.19
2022-07-26T21:06:48.018Z,67.15
2022-07-26T21:09:20.665Z,67.22
2022-07-26T21:11:52.294Z,67.42
2022-07-26T21:14:23.952Z,67.29
2022-07-26T21:16:55.837Z,67.17
2022-07-26T21:19:27.688Z,67.42
2022-07-26T21:22:00.535Z,67.46
2022-07-26T21:24:32.261Z,67.46
2022-07-26T21:27:04.466Z,67.74
2022-07-26T21:29:37.915Z,67.63
2022-07-26T21:32:11.339Z,67.66
2022-07-26T21:34:43.215Z,67.67
2022-07-26T21:37:15.071Z,67.75
2022-07-26T21:39:46.719Z,67.78
2022-07-26T21:42:18.537Z,67.74
2022-07-26T21:44:50.189Z,67.86
2022-07-26T21:47:21.974Z,67.86
2022-07-26T21:49:53.550Z,67.82
2022-07-26T21:52:25.279Z,68.04
2022-07-26T21:54:57.035Z,68.04
2022-07-26T21:57:28.724Z,68.28
2022-07-26T22:00:00.303Z,68.24
2022-07-26T22:02:32.224Z,68.12
2022-07-26T22:05:04.188Z,68.22
2022-07-26T22:07:35.958Z,67.95
2022-07-26T22:10:11.221Z,68.12
2022-07-26T22:12:42.887Z,68.14
2022-07-26T22:15:14.707Z,68.14
2022-07-26T22:17:46.416Z,68.36
2022-07-26T22:20:20.064Z,68.32
2022-07-26T22:22:51.820Z,68.32
2022-07-26T22:25:23.575Z,68.26
2022-07-26T22:27:55.464Z,68.36
2022-07-26T22:30:28.598Z,68.35
2022-07-26T22:33:01.823Z,68.43
2022-07-26T22:35:35.989Z,68.40
2022-07-26T22:38:11.279Z,68.39
2022-07-26T22:40:44.563Z,68.44
2022-07-26T22:43:16.498Z,68.47
2022-07-26T22:45:48.251Z,68.46
2022-07-26T22:48:20.059Z,68.54
2022-07-26T22:50:51.887Z,68.55
2022-07-26T22:53:23.642Z,68.51
2022-07-26T22:55:55.318Z,68.53
2022-07-26T22:58:26.963Z,68.56
2022-07-26T23:00:58.838Z,68.60
2022-07-26T23:03:30.746Z,68.51
2022-07-26T23:06:05.023Z,68.61
2022-07-26T23:08:51.817Z,68.67
2022-07-26T23:11:23.359Z,68.64
2022-07-26T23:13:58.830Z,68.72
2022-07-26T23:16:30.907Z,68.78
2022-07-26T23:19:02.587Z,68.85
2022-07-26T23:21:34.209Z,68.86
2022-07-26T23:24:06.165Z,68.78
2022-07-26T23:26:38.253Z,68.97
2022-07-26T23:29:10.389Z,69.05
2022-07-26T23:31:42.695Z,69.02
2022-07-26T23:34:14.876Z,68.89
2022-07-26T23:36:46.522Z,68.85
2022-07-26T23:39:18.336Z,69.17
2022-07-26T23:41:49.914Z,69.10
2022-07-26T23:44:21.599Z,69.28
2022-07-26T23:46:53.259Z,69.18
2022-07-26T23:49:25.124Z,69.25
2022-07-26T23:51:56.877Z,69.22
2022-07-26T23:54:28.939Z,69.24
2022-07-26T23:57:00.556Z,69.37
2022-07-26T23:59:32.241Z,69.53
